Time;durP1;ratioP1;P1;durP2;ratioP2;P2;SDS_P1;SDS_P2;PMS_P1;PMS_P2;Temp;Humidity;BMP_temperature;BMP_pressure;BME280_temperature;BME280_humidity;BME280_pressure;Samples;Min_cycle;Max_cycle;Signal;HPM_P1;HPM_P2
2022/11/07 00:00:08;;;;;;;46.60;19.45;;;;;;;6.60;92.91;101203.34;1760905;81;20980;-62
2022/11/07 00:02:40;;;;;;;43.70;19.07;;;;;;;6.61;92.86;101201.47;1754714;81;21447;-62
2022/11/07 00:05:10;;;;;;;45.10;20.23;;;;;;;6.60;92.89;101203.34;1773785;81;21424;-61
2022/11/07 00:07:41;;;;;;;48.45;20.15;;;;;;;6.61;92.95;101207.77;1744999;81;21445;-62
2022/11/07 00:10:12;;;;;;;45.83;19.77;;;;;;;6.62;92.94;101208.12;1764528;81;21061;-67
2022/11/07 00:12:41;;;;;;;42.75;19.25;;;;;;;6.65;92.89;101209.19;1777352;81;21038;-61
2022/11/07 00:15:11;;;;;;;42.65;19.67;;;;;;;6.67;92.88;101209.03;1775796;80;20972;-61
2022/11/07 00:17:40;;;;;;;47.30;21.02;;;;;;;6.67;92.85;101208.53;1776084;81;21445;-62
2022/11/07 00:20:11;;;;;;;45.70;20.43;;;;;;;6.68;92.85;101202.58;1752689;81;21017;-62
2022/11/07 00:22:41;;;;;;;44.25;19.73;;;;;;;6.67;92.76;101204.44;1762423;81;21481;-60
2022/11/07 00:25:11;;;;;;;44.67;19.05;;;;;;;6.66;92.69;101200.00;1752359;81;21076;-61
2022/11/07 00:27:41;;;;;;;48.13;20.20;;;;;;;6.67;92.75;101199.00;1758904;81;21014;-62
2022/11/07 00:30:12;;;;;;;46.77;20.50;;;;;;;6.67;92.72;101200.36;1747331;81;21042;-70
2022/11/07 00:32:42;;;;;;;45.63;19.60;;;;;;;6.66;92.68;101199.14;1761353;80;21065;-62
2022/11/07 00:35:12;;;;;;;44.13;19.82;;;;;;;6.65;92.76;101197.44;1769252;80;21077;-61
2022/11/07 00:37:42;;;;;;;46.73;19.70;;;;;;;6.64;92.72;101197.94;1762962;80;21459;-60
2022/11/07 00:40:12;;;;;;;50.35;21.45;;;;;;;6.64;92.76;101191.13;1762155;80;21013;-68
2022/11/07 00:42:40;;;;;;;53.75;21.77;;;;;;;6.62;92.81;101184.98;1765221;80;21026;-61
2022/11/07 00:45:10;;;;;;;48.38;20.25;;;;;;;6.62;92.90;101184.98;1773301;80;20997;-60
2022/11/07 00:47:39;;;;;;;52.83;20.97;;;;;;;6.63;92.95;101179.03;1775307;80;21047;-62
2022/11/07 00:50:11;;;;;;;48.15;21.40;;;;;;;6.66;92.97;101183.66;1757190;80;21473;-61
2022/11/07 00:52:41;;;;;;;49.40;21.30;;;;;;;6.68;92.95;101181.64;1766748;80;21072;-64
2022/11/07 00:55:11;;;;;;;51.02;22.00;;;;;;;6.69;92.93;101175.70;1762939;80;21065;-61
2022/11/07 00:57:42;;;;;;;52.15;21.02;;;;;;;6.68;92.87;101173.47;1750746;80;21049;-61
2022/11/07 01:00:12;;;;;;;47.03;20.75;;;;;;;6.66;92.87;101175.50;1764907;80;21041;-60
2022/11/07 01:02:42;;;;;;;45.98;20.12;;;;;;;6.66;92.90;101174.64;1754427;80;21064;-62
2022/11/07 01:05:12;;;;;;;47.30;20.77;;;;;;;6.69;92.94;101175.70;1754953;80;21343;-63
2022/11/07 01:07:42;;;;;;;44.33;21.27;;;;;;;6.66;92.85;101170.05;1767684;80;21481;-61
2022/11/07 01:10:13;;;;;;;49.30;21.93;;;;;;;6.63;92.89;101167.63;1765003;80;21053;-61
2022/11/07 01:12:45;;;;;;;48.15;21.00;;;;;;;6.63;93.02;101166.27;1750309;80;21417;-60
2022/11/07 01:15:13;;;;;;;51.48;20.62;;;;;;;6.62;93.12;101167.78;1765456;80;21073;-60
2022/11/07 01:17:44;;;;;;;46.13;20.77;;;;;;;6.63;93.12;101158.10;1780266;80;21091;-61
2022/11/07 01:20:14;;;;;;;45.85;21.30;;;;;;;6.65;93.14;101152.50;1767314;80;21070;-60
2022/11/07 01:22:44;;;;;;;46.98;20.48;;;;;;;6.65;93.12;101154.72;1779858;80;21495;-60
2022/11/07 01:25:13;;;;;;;51.85;22.17;;;;;;;6.67;93.14;101153.20;1753321;80;21029;-60
2022/11/07 01:27:41;;;;;;;45.52;20.57;;;;;;;6.65;93.24;101150.64;1767642;80;21043;-60
2022/11/07 01:30:11;;;;;;;46.83;21.55;;;;;;;6.67;93.30;101141.81;1767193;80;21011;-61
2022/11/07 01:32:41;;;;;;;45.00;19.98;;;;;;;6.70;93.31;101139.78;1779597;80;21110;-63
2022/11/07 01:35:10;;;;;;;48.40;22.25;;;;;;;6.72;93.29;101140.48;1768375;80;21135;-66
2022/11/07 01:37:41;;;;;;;48.38;21.70;;;;;;;6.73;93.23;101137.61;1765124;80;20980;-61
2022/11/07 01:40:21;;;;;;;56.75;22.90;;;;;;;6.76;93.30;101139.17;1755520;80;21101;-61
2022/11/07 01:42:50;;;;;;;53.45;21.02;;;;;;;6.74;93.22;101137.96;1767901;80;21073;-59
2022/11/07 01:45:23;;;;;;;46.85;20.52;;;;;;;6.75;93.17;101136.09;1767667;80;21039;-60
2022/11/07 01:47:54;;;;;;;48.85;20.62;;;;;;;6.72;93.10;101132.31;1780213;80;21052;-63
2022/11/07 01:50:24;;;;;;;47.78;21.37;;;;;;;6.73;93.08;101132.67;1766872;80;21053;-61
2022/11/07 01:52:54;;;;;;;47.75;21.20;;;;;;;6.72;93.13;101135.90;1755838;80;21090;-61
2022/11/07 01:55:31;;;;;;;44.25;20.72;;;;;;;6.71;93.19;101131.46;1767911;80;21012;-62
2022/11/07 01:58:04;;;;;;;41.85;19.35;;;;;;;6.72;93.18;101123.64;1759860;80;21090;-61
2022/11/07 02:00:35;;;;;;;44.45;19.92;;;;;;;6.73;93.18;101121.77;1777384;80;21065;-62
2022/11/07 02:03:10;;;;;;;43.68;20.17;;;;;;;6.74;93.14;101122.98;1771603;80;21444;-62
2022/11/07 02:05:45;;;;;;;40.50;19.20;;;;;;;6.76;93.13;101117.38;1765617;80;21039;-65
2022/11/07 02:08:15;;;;;;;44.60;20.72;;;;;;;6.78;93.15;101118.08;1770110;80;21037;-61
2022/11/07 02:10:45;;;;;;;44.60;19.87;;;;;;;6.77;93.12;101114.50;1766016;80;21033;-61
2022/11/07 02:13:21;;;;;;;50.25;20.43;;;;;;;6.77;93.07;101109.55;1780286;80;21054;-61
2022/11/07 02:15:51;;;;;;;43.30;20.30;;;;;;;6.77;93.01;101110.92;1763941;80;21064;-61
2022/11/07 02:18:21;;;;;;;43.42;19.98;;;;;;;6.76;93.05;101109.20;1762650;80;20986;-61
2022/11/07 02:20:51;;;;;;;44.90;20.55;;;;;;;6.76;93.06;101103.25;1771638;80;21051;-62
2022/11/07 02:23:38;;;;;;;46.65;20.10;;;;;;;6.76;93.06;101102.39;1762772;80;21049;-60
2022/11/07 02:26:07;;;;;;;44.18;19.12;;;;;;;6.75;93.01;101104.27;1747648;80;21374;-62
2022/11/07 02:28:36;;;;;;;39.85;18.98;;;;;;;6.73;92.98;101103.56;1771342;80;21043;-61
2022/11/07 02:31:05;;;;;;;43.92;21.33;;;;;;;6.74;93.04;101103.06;1757502;80;21112;-60
2022/11/07 02:33:34;;;;;;;45.12;20.00;;;;;;;6.74;93.10;101102.55;1777565;80;21042;-62
2022/11/07 02:36:04;;;;;;;44.00;19.70;;;;;;;6.77;93.16;101106.84;1785937;80;21027;-61
2022/11/07 02:38:35;;;;;;;42.27;20.17;;;;;;;6.77;93.12;101100.88;1785525;80;21419;-62
2022/11/07 02:41:13;;;;;;;43.52;20.50;;;;;;;6.78;93.07;101091.70;1774343;80;21017;-60
2022/11/07 02:43:57;;;;;;;41.53;19.60;;;;;;;6.79;92.96;101093.91;1774233;80;21014;-61
2022/11/07 02:46:27;;;;;;;44.60;20.25;;;;;;;6.79;92.99;101108.39;1773485;80;21445;-61
2022/11/07 02:48:57;;;;;;;43.98;19.32;;;;;;;6.79;93.02;101106.17;1779855;80;21033;-61
2022/11/07 02:51:26;;;;;;;42.78;19.27;;;;;;;6.81;93.07;101106.37;1781347;80;20995;-61
2022/11/07 02:53:55;;;;;;;43.95;19.60;;;;;;;6.85;93.06;101101.46;1776093;80;21009;-61
2022/11/07 02:56:24;;;;;;;41.30;19.42;;;;;;;6.87;92.98;101107.61;1781832;80;21060;-60
2022/11/07 02:58:53;;;;;;;43.35;20.45;;;;;;;6.87;92.88;101101.66;1785938;80;21038;-62
2022/11/07 03:01:23;;;;;;;40.15;19.75;;;;;;;6.86;92.88;101101.81;1779198;80;21080;-61
2022/11/07 03:03:53;;;;;;;42.83;18.82;;;;;;;6.86;92.86;101107.26;1779189;80;21021;-61
2022/11/07 03:06:26;;;;;;;42.83;18.90;;;;;;;6.88;92.83;101116.98;1774639;80;21407;-62
2022/11/07 03:08:55;;;;;;;41.35;19.27;;;;;;;6.89;92.75;101113.76;1776382;80;21057;-68
2022/11/07 03:11:24;;;;;;;41.60;20.32;;;;;;;6.87;92.70;101112.55;1768942;80;21005;-60
2022/11/07 03:13:55;;;;;;;46.55;19.92;;;;;;;6.87;92.71;101111.69;1781554;80;21017;-62
2022/11/07 03:16:27;;;;;;;37.50;17.50;;;;;;;6.87;92.65;101108.97;1781461;80;20996;-61
2022/11/07 03:18:56;;;;;;;41.05;18.20;;;;;;;6.87;92.61;101117.14;1781158;80;21044;-66
2022/11/07 03:21:26;;;;;;;41.63;18.98;;;;;;;6.87;92.58;101122.09;1781242;80;21010;-60
2022/11/07 03:23:55;;;;;;;43.28;19.90;;;;;;;6.89;92.61;101112.39;1785950;80;21046;-62
2022/11/07 03:26:24;;;;;;;41.37;19.30;;;;;;;6.90;92.64;101116.83;1775951;80;21450;-60
2022/11/07 03:28:53;;;;;;;37.73;18.30;;;;;;;6.91;92.63;101116.67;1782605;80;21026;-62
2022/11/07 03:31:23;;;;;;;38.80;20.17;;;;;;;6.92;92.57;101118.39;1777535;80;21061;-61
2022/11/07 03:33:52;;;;;;;40.40;18.90;;;;;;;6.93;92.49;101115.16;1771313;80;21464;-60
2022/11/07 03:36:22;;;;;;;39.00;19.62;;;;;;;6.93;92.46;101116.52;1773943;81;21038;-61
2022/11/07 03:38:51;;;;;;;38.67;18.20;;;;;;;6.93;92.46;101116.52;1764788;81;21063;-61
2022/11/07 03:41:20;;;;;;;37.03;18.25;;;;;;;6.93;92.39;101106.48;1760757;80;21089;-61
2022/11/07 03:43:52;;;;;;;40.65;18.55;;;;;;;6.93;92.35;101101.53;1764951;81;21039;-60
2022/11/07 03:46:22;;;;;;;39.73;18.50;;;;;;;6.94;92.36;101102.73;1776852;81;21039;-62
2022/11/07 03:48:51;;;;;;;39.90;18.85;;;;;;;6.95;92.32;101095.42;1754007;81;21012;-60
2022/11/07 03:51:23;;;;;;;38.10;19.07;;;;;;;6.95;92.29;101096.28;1776309;81;21067;-62
2022/11/07 03:53:53;;;;;;;37.15;18.50;;;;;;;6.95;92.25;101092.70;1759324;81;21473;-62
2022/11/07 03:56:22;;;;;;;39.65;18.82;;;;;;;6.96;92.25;101091.68;1756499;81;21063;-62
2022/11/07 03:58:52;;;;;;;37.67;17.87;;;;;;;6.96;92.17;101091.17;1759096;81;21021;-60
2022/11/07 04:01:22;;;;;;;39.33;19.55;;;;;;;6.97;92.14;101083.86;1772047;81;21055;-60
2022/11/07 04:03:51;;;;;;;38.48;18.37;;;;;;;6.98;92.07;101085.06;1753147;81;20988;-61
2022/11/07 04:06:22;;;;;;;32.75;17.62;;;;;;;6.98;91.99;101081.48;1777216;81;21057;-62
2022/11/07 04:08:52;;;;;;;35.25;18.37;;;;;;;6.98;91.97;101084.20;1752313;81;21008;-62
2022/11/07 04:17:17;;;;;;;35.00;17.60;;;;;;;7.01;91.77;101082.53;1765284;81;21010;-60
2022/11/07 04:19:55;;;;;;;37.60;18.40;;;;;;;7.01;91.63;101078.44;1760106;81;21055;-61
2022/11/07 04:22:26;;;;;;;35.70;17.82;;;;;;;7.01;91.58;101082.53;1770363;81;21083;-60
2022/11/07 04:24:56;;;;;;;36.13;17.50;;;;;;;7.02;91.47;101080.16;1776507;81;21107;-63
2022/11/07 04:27:43;;;;;;;34.90;18.00;;;;;;;7.02;91.38;101080.16;1777083;80;21008;-61
2022/11/07 04:30:19;;;;;;;37.38;18.07;;;;;;;7.04;91.31;101079.99;1763674;80;21083;-61
2022/11/07 04:32:57;;;;;;;32.85;17.40;;;;;;;7.05;91.17;101072.17;1749694;80;21006;-59
2022/11/07 04:35:31;;;;;;;35.75;18.25;;;;;;;7.03;90.97;101072.33;1786367;80;21054;-61
2022/11/07 04:38:00;;;;;;;34.33;17.37;;;;;;;7.00;90.87;101069.41;1768542;80;21018;-60
2022/11/07 04:40:30;;;;;;;33.78;16.48;;;;;;;6.99;90.81;101073.66;1782318;80;21313;-63
2022/11/07 04:42:59;;;;;;;31.82;17.12;;;;;;;7.01;90.80;101072.99;1772686;80;21051;-62
2022/11/07 04:45:29;;;;;;;33.08;16.25;;;;;;;7.02;90.71;101069.25;1781178;80;21001;-61
2022/11/07 04:47:58;;;;;;;34.67;18.20;;;;;;;7.02;90.66;101067.03;1785878;80;21004;-61
2022/11/07 04:50:31;;;;;;;33.85;17.67;;;;;;;7.00;90.58;101065.33;1749110;82;21048;-62
2022/11/07 04:53:00;;;;;;;32.45;16.55;;;;;;;7.02;90.57;101082.88;1728653;82;21514;-62
2022/11/07 04:55:29;;;;;;;34.60;17.48;;;;;;;7.03;90.35;101085.95;1776637;80;20995;-62
2022/11/07 04:57:59;;;;;;;32.03;16.45;;;;;;;7.03;90.30;101079.65;1781162;80;21473;-63
2022/11/07 05:00:29;;;;;;;35.33;16.82;;;;;;;7.05;90.28;101081.20;1786077;80;21043;-62
2022/11/07 05:02:58;;;;;;;29.92;16.85;;;;;;;7.07;90.14;101081.05;1781214;80;21044;-62
2022/11/07 05:05:31;;;;;;;36.93;16.65;;;;;;;7.06;90.11;101085.63;1780344;80;21428;-62
2022/11/07 05:08:04;;;;;;;33.55;16.97;;;;;;;7.08;90.05;101082.75;1774624;80;21456;-62
2022/11/07 05:10:35;;;;;;;31.17;15.35;;;;;;;7.10;90.00;101084.30;1786288;80;21025;-62
2022/11/07 05:13:05;;;;;;;28.80;15.35;;;;;;;7.11;89.78;101087.38;1781231;80;21018;-60
2022/11/07 05:15:36;;;;;;;33.98;16.37;;;;;;;7.12;89.69;101088.23;1781053;80;21473;-62
2022/11/07 05:18:09;;;;;;;31.07;16.30;;;;;;;7.11;89.47;101090.10;1775688;80;21081;-62
2022/11/07 05:20:40;;;;;;;30.85;15.93;;;;;;;7.09;89.33;101090.77;1779146;80;22063;-62
2022/11/07 05:23:13;;;;;;;32.33;16.05;;;;;;;7.08;89.25;101101.32;1779131;80;21019;-64
2022/11/07 05:25:52;;;;;;;31.30;15.30;;;;;;;7.07;89.13;101095.52;1777609;80;21003;-61
2022/11/07 05:28:28;;;;;;;31.75;15.38;;;;;;;7.07;89.01;101102.33;1780783;80;21108;-61
2022/11/07 05:31:01;;;;;;;27.77;15.68;;;;;;;7.08;88.92;101106.77;1775067;80;21012;-63
2022/11/07 05:33:31;;;;;;;30.20;16.45;;;;;;;7.06;88.94;101108.80;1758978;80;21035;-63
2022/11/07 05:36:14;;;;;;;26.82;14.78;;;;;;;7.06;88.92;101100.63;1767729;80;21004;-63
2022/11/07 05:38:48;;;;;;;28.95;16.45;;;;;;;7.08;88.94;101112.73;1724752;80;21061;-62
2022/11/07 05:41:19;;;;;;;28.85;15.95;;;;;;;7.07;88.81;101114.59;1767389;80;21037;-62
2022/11/07 05:43:49;;;;;;;30.27;15.65;;;;;;;7.09;88.77;101115.80;1772411;80;21049;-62
2022/11/07 05:46:20;;;;;;;30.08;15.85;;;;;;;7.09;88.68;101112.56;1763825;80;21031;-61
2022/11/07 05:48:50;;;;;;;34.40;15.90;;;;;;;7.07;88.45;101121.41;1775167;80;21065;-65
2022/11/07 05:51:24;;;;;;;31.48;15.53;;;;;;;7.06;88.49;101121.06;1766512;80;20982;-64
2022/11/07 05:53:53;;;;;;;27.13;14.58;;;;;;;7.07;88.54;101116.46;1780194;80;21035;-61
2022/11/07 05:56:23;;;;;;;28.47;16.50;;;;;;;7.07;88.50;101117.32;1778593;80;21467;-62
2022/11/07 05:58:52;;;;;;;27.58;14.53;;;;;;;7.08;88.39;101120.39;1747723;80;21029;-63
2022/11/07 06:01:21;;;;;;;31.48;15.53;;;;;;;7.07;88.28;101118.69;1763578;80;21048;-63
2022/11/07 06:03:54;;;;;;;29.65;15.25;;;;;;;7.07;88.26;101120.55;1773361;80;21006;-60
2022/11/07 06:06:24;;;;;;;31.65;15.80;;;;;;;7.08;88.31;101124.48;1762900;80;21068;-63
2022/11/07 06:08:53;;;;;;;29.00;15.32;;;;;;;7.09;88.08;101119.38;1769060;80;21069;-62
2022/11/07 06:11:23;;;;;;;27.75;15.25;;;;;;;7.08;88.08;101114.09;1775759;80;21090;-61
2022/11/07 06:13:54;;;;;;;27.50;15.20;;;;;;;7.09;88.07;101107.63;1768326;80;21532;-62
2022/11/07 06:16:23;;;;;;;28.10;15.13;;;;;;;7.09;88.12;101108.48;1755784;80;21081;-63
2022/11/07 06:18:54;;;;;;;29.10;14.78;;;;;;;7.12;88.12;101112.25;1757767;80;21057;-62
2022/11/07 06:21:29;;;;;;;33.30;15.40;;;;;;;7.14;87.99;101110.23;1690477;84;21036;-62
2022/11/07 06:23:58;;;;;;;28.65;15.35;;;;;;;7.14;87.79;101115.67;1697267;84;21040;-62
2022/11/07 06:26:28;;;;;;;27.02;15.00;;;;;;;7.17;87.73;101119.98;1707280;84;21091;-61
2022/11/07 06:28:58;;;;;;;31.37;16.77;;;;;;;7.18;87.68;101122.55;1689900;84;21513;-63
2022/11/07 06:31:27;;;;;;;28.70;15.45;;;;;;;7.17;87.61;101118.11;1712505;84;21119;-63
2022/11/07 06:33:57;;;;;;;30.77;15.43;;;;;;;7.17;87.65;101120.84;1713026;83;21047;-62
2022/11/07 06:36:27;;;;;;;30.50;15.10;;;;;;;7.19;87.63;101120.17;1713306;84;21078;-63
2022/11/07 06:39:02;;;;;;;29.20;14.18;;;;;;;7.20;87.52;101123.25;1721802;80;21014;-61
2022/11/07 06:41:33;;;;;;;29.30;15.72;;;;;;;7.19;87.35;101125.63;1747723;80;21077;-63
2022/11/07 06:44:03;;;;;;;27.20;15.32;;;;;;;7.17;87.38;101126.80;1774639;80;21045;-64
2022/11/07 06:46:33;;;;;;;29.87;15.83;;;;;;;7.16;87.39;101130.54;1760438;80;21051;-62
2022/11/07 06:49:02;;;;;;;27.48;14.55;;;;;;;7.18;87.46;101138.91;1779395;80;21106;-61
2022/11/07 06:51:32;;;;;;;29.12;14.98;;;;;;;7.19;87.36;101128.36;1780199;80;21035;-62
2022/11/07 06:54:01;;;;;;;28.60;14.45;;;;;;;7.22;87.29;101128.03;1776260;80;21041;-62
2022/11/07 06:56:31;;;;;;;28.62;15.38;;;;;;;7.24;87.30;101127.38;1770536;80;21040;-61
2022/11/07 06:59:01;;;;;;;26.42;15.55;;;;;;;7.27;87.19;101131.14;1780068;80;21021;-63
2022/11/07 07:01:30;;;;;;;29.07;15.10;;;;;;;7.25;86.91;101135.90;1780548;80;20989;-63
2022/11/07 07:04:01;;;;;;;30.88;15.38;;;;;;;7.24;86.82;101131.97;1777937;80;21023;-61
2022/11/07 07:06:31;;;;;;;27.13;14.20;;;;;;;7.24;86.89;101141.00;1758456;80;21117;-62
2022/11/07 07:09:05;;;;;;;31.07;15.00;;;;;;;7.22;86.63;101130.77;1712979;83;21487;-61
2022/11/07 07:11:36;;;;;;;27.85;15.85;;;;;;;7.21;86.68;101131.78;1702287;84;21047;-62
2022/11/07 07:14:05;;;;;;;27.05;14.70;;;;;;;7.21;86.81;101135.86;1699405;84;21541;-63
2022/11/07 07:16:38;;;;;;;27.48;14.98;;;;;;;7.23;86.84;101143.38;1706032;84;21473;-63
2022/11/07 07:19:07;;;;;;;27.40;14.25;;;;;;;7.23;86.75;101146.61;1711988;84;21024;-64
2022/11/07 07:21:39;;;;;;;27.25;13.93;;;;;;;7.25;86.73;101145.95;1685822;84;21475;-61
2022/11/07 07:24:08;;;;;;;26.17;14.53;;;;;;;7.26;86.66;101139.48;1711235;84;21212;-61
2022/11/07 07:26:38;;;;;;;25.92;14.30;;;;;;;7.28;86.59;101142.91;1729973;80;21044;-62
2022/11/07 07:29:09;;;;;;;31.07;15.35;;;;;;;7.30;86.49;101146.33;1767496;80;21021;-62
2022/11/07 07:31:40;;;;;;;26.65;14.93;;;;;;;7.31;86.44;101139.35;1767360;80;20987;-63
2022/11/07 07:34:10;;;;;;;26.70;14.15;;;;;;;7.31;86.26;101140.72;1780030;80;20981;-61
2022/11/07 07:36:39;;;;;;;29.18;13.62;;;;;;;7.34;86.17;101131.36;1778192;80;21031;-61
2022/11/07 07:39:09;;;;;;;28.38;14.58;;;;;;;7.37;86.06;101135.14;1778805;80;20979;-62
2022/11/07 07:41:39;;;;;;;28.42;14.58;;;;;;;7.38;85.77;101140.94;1757029;80;21040;-62
2022/11/07 07:44:08;;;;;;;25.48;13.95;;;;;;;7.38;85.68;101142.81;1766887;80;21063;-63
2022/11/07 07:46:37;;;;;;;24.75;13.95;;;;;;;7.37;85.45;101140.59;1770970;80;21088;-62
2022/11/07 07:49:07;;;;;;;24.52;14.03;;;;;;;7.36;85.28;101137.52;1761046;80;21019;-62
2022/11/07 07:51:36;;;;;;;28.32;14.35;;;;;;;7.36;85.20;101147.56;1753228;80;21123;-62
2022/11/07 07:54:05;;;;;;;29.55;14.28;;;;;;;7.36;85.09;101142.11;1769017;80;21026;-61
2022/11/07 07:56:36;;;;;;;25.35;14.13;;;;;;;7.37;85.22;101132.41;1775084;80;21503;-63
2022/11/07 07:59:06;;;;;;;23.92;14.30;;;;;;;7.39;85.05;101132.25;1748365;80;21035;-63
2022/11/07 08:01:35;;;;;;;26.05;13.68;;;;;;;7.36;85.13;101138.87;1774596;80;21062;-64
2022/11/07 08:04:05;;;;;;;26.57;14.10;;;;;;;7.36;85.06;101140.23;1772546;80;21039;-67
2022/11/07 08:06:36;;;;;;;22.37;12.63;;;;;;;7.37;85.23;101141.95;1764597;80;21007;-62
2022/11/07 08:09:05;;;;;;;25.08;14.35;;;;;;;7.38;85.28;101141.44;1780239;80;21550;-65
2022/11/07 08:11:34;;;;;;;25.55;13.68;;;;;;;7.39;85.48;101144.52;1754283;80;21049;-62
2022/11/07 08:14:04;;;;;;;23.85;14.07;;;;;;;7.40;85.50;101150.31;1780121;80;21012;-62
2022/11/07 08:16:33;;;;;;;27.07;14.43;;;;;;;7.38;85.56;101137.35;1765100;80;21044;-63
2022/11/07 08:19:03;;;;;;;27.22;15.40;;;;;;;7.37;85.64;101138.37;1772682;80;21029;-60
2022/11/07 08:21:35;;;;;;;22.75;13.35;;;;;;;7.38;85.88;101143.66;1764876;80;21005;-63
2022/11/07 08:24:07;;;;;;;24.87;14.07;;;;;;;7.39;86.01;101134.97;1780152;80;21110;-62
2022/11/07 08:26:38;;;;;;;26.55;15.13;;;;;;;7.37;86.18;101139.22;1779450;80;21009;-61
2022/11/07 08:29:07;;;;;;;26.90;14.18;;;;;;;7.35;86.36;101146.70;1771980;80;21046;-63
2022/11/07 08:31:36;;;;;;;28.40;15.20;;;;;;;7.34;86.47;101137.33;1775475;80;21023;-66
2022/11/07 08:34:05;;;;;;;26.73;14.50;;;;;;;7.33;86.62;101140.56;1779194;80;21043;-63
2022/11/07 08:36:35;;;;;;;25.85;13.85;;;;;;;7.32;86.79;101137.48;1778809;80;21101;-62
2022/11/07 08:39:05;;;;;;;23.40;13.50;;;;;;;7.33;86.85;101135.61;1756544;80;21060;-61
2022/11/07 08:41:36;;;;;;;24.57;14.70;;;;;;;7.31;87.00;101139.35;1720198;83;21067;-62
2022/11/07 08:44:08;;;;;;;27.58;14.45;;;;;;;7.33;87.14;101130.16;1718625;83;21593;-62
2022/11/07 08:46:38;;;;;;;26.02;15.10;;;;;;;7.34;87.34;101135.95;1719846;83;21067;-62
2022/11/07 08:49:07;;;;;;;24.18;14.20;;;;;;;7.34;87.43;101132.73;1687502;83;21080;-63
2022/11/07 08:51:41;;;;;;;26.87;14.53;;;;;;;7.34;87.47;101130.51;1687349;83;21111;-63
2022/11/07 08:54:12;;;;;;;25.95;14.55;;;;;;;7.35;87.48;101125.41;1696474;83;21498;-62
2022/11/07 08:56:43;;;;;;;27.15;15.15;;;;;;;7.35;87.47;101124.89;1706917;83;21558;-63
2022/11/07 08:59:12;;;;;;;24.65;14.35;;;;;;;7.35;87.65;101125.41;1720615;83;21048;-64
2022/11/07 09:01:41;;;;;;;24.02;14.10;;;;;;;7.39;87.85;101125.44;1706008;83;21046;-61
2022/11/07 09:04:13;;;;;;;21.30;12.75;;;;;;;7.41;87.88;101118.80;1709913;83;21468;-61
2022/11/07 09:06:43;;;;;;;25.32;14.10;;;;;;;7.46;87.67;101123.78;1750542;80;21041;-61
2022/11/07 09:09:14;;;;;;;27.70;14.85;;;;;;;7.45;87.46;101125.65;1755574;80;21469;-64
2022/11/07 09:11:44;;;;;;;24.37;14.53;;;;;;;7.43;87.50;101129.05;1780381;80;21400;-62
2022/11/07 09:14:14;;;;;;;26.75;14.18;;;;;;;7.44;87.52;101123.94;1767722;80;21042;-63
2022/11/07 09:16:45;;;;;;;27.37;14.25;;;;;;;7.48;87.59;101123.11;1780244;80;21142;-63
2022/11/07 09:19:17;;;;;;;22.95;13.55;;;;;;;7.50;87.61;101120.57;1766113;80;21053;-64
2022/11/07 09:21:47;;;;;;;21.07;13.22;;;;;;;7.51;87.65;101126.38;1748693;80;21482;-63
2022/11/07 09:24:17;;;;;;;25.68;14.35;;;;;;;7.52;87.69;101120.41;1768107;80;21515;-63
2022/11/07 09:26:45;;;;;;;25.95;14.58;;;;;;;7.51;87.71;101122.28;1772818;80;21061;-64
2022/11/07 09:29:15;;;;;;;25.17;14.13;;;;;;;7.48;87.73;101115.78;1772576;80;22193;-62
2022/11/07 09:31:44;;;;;;;25.00;13.88;;;;;;;7.45;87.90;101117.47;1767171;80;20976;-62
2022/11/07 09:34:14;;;;;;;27.77;13.78;;;;;;;7.42;88.20;101109.61;1779650;80;21015;-64
2022/11/07 09:36:43;;;;;;;24.55;13.68;;;;;;;7.40;88.37;101109.42;1754279;80;21064;-66
2022/11/07 09:39:12;;;;;;;23.22;13.98;;;;;;;7.37;88.57;101105.66;1771477;81;21066;-63
2022/11/07 09:41:55;;;;;;;25.97;14.65;;;;;;;7.34;88.65;101104.61;1759860;81;21020;-63
2022/11/07 09:44:31;;;;;;;24.27;13.48;;;;;;;7.28;88.69;101100.66;1752567;81;21057;-63
2022/11/07 09:47:15;;;;;;;18.37;11.45;;;;;;;7.26;88.92;101093.14;1764367;81;21069;-63
2022/11/07 09:49:51;;;;;;;26.35;13.30;;;;;;;7.25;89.03;101091.43;1751408;81;21006;-63
2022/11/07 09:52:44;;;;;;;24.27;14.07;;;;;;;7.23;89.33;101093.45;1763400;81;21057;-62
2022/11/07 09:55:30;;;;;;;25.15;14.63;;;;;;;7.19;89.55;101089.34;1761871;81;21513;-62
2022/11/07 09:58:03;;;;;;;26.05;15.20;;;;;;;7.17;89.96;101084.56;1753778;81;20990;-63
2022/11/07 10:00:33;;;;;;;24.47;13.93;;;;;;;7.16;90.14;101079.61;1679893;84;21079;-63
2022/11/07 10:03:05;;;;;;;23.55;14.28;;;;;;;7.13;90.10;101076.31;1701315;84;21072;-62
2022/11/07 10:06:13;;;;;;;25.55;13.62;;;;;;;7.10;90.22;101080.22;1695952;84;21036;-60
2022/11/07 10:09:34;;;;;;;23.07;13.65;;;;;;;7.03;90.09;101072.33;1703154;84;21096;-61
2022/11/07 10:13:18;;;;;;;18.95;9.53;;;;;;;7.00;90.51;101072.64;1686932;84;21063;-62
2022/11/07 10:16:27;;;;;;;24.40;13.48;;;;;;;6.96;90.84;101075.34;1531543;93;21090;-62
2022/11/07 10:19:54;;;;;;;25.95;14.35;;;;;;;6.94;91.01;101074.64;1547521;92;21159;-61
2022/11/07 10:23:26;;;;;;;24.00;13.25;;;;;;;6.93;90.94;101070.20;1540772;92;21612;-60
2022/11/07 10:26:09;;;;;;;23.32;12.93;;;;;;;6.93;91.15;101075.66;1552552;92;21060;-60
2022/11/07 10:28:47;;;;;;;24.43;12.93;;;;;;;6.90;91.14;101061.84;1550511;92;21164;-62
2022/11/07 10:31:22;;;;;;;23.32;13.40;;;;;;;6.96;91.21;101060.35;1813192;77;22089;-60
2022/11/07 10:34:03;;;;;;;25.52;14.23;;;;;;;6.91;91.17;101062.19;1768465;80;21111;-60
2022/11/07 10:36:33;;;;;;;21.85;13.08;;;;;;;6.91;91.13;101053.16;1771306;80;21083;-60
2022/11/07 10:39:14;;;;;;;31.90;17.98;;;;;;;6.89;90.97;101055.19;1729303;82;21135;-60
2022/11/07 10:41:52;;;;;;;21.25;13.18;;;;;;;6.86;90.85;101048.70;1631679;86;21170;-61
2022/11/07 10:44:26;;;;;;;19.87;12.53;;;;;;;6.86;90.77;101037.29;1657950;86;21271;-61
2022/11/07 10:46:55;;;;;;;23.45;14.03;;;;;;;6.86;90.65;101039.16;1652841;85;21143;-61
2022/11/07 10:49:30;;;;;;;23.55;13.90;;;;;;;6.83;90.58;101036.75;1708021;83;21654;-63
2022/11/07 10:52:18;;;;;;;24.27;13.50;;;;;;;6.83;90.43;101030.80;1710732;83;21167;-62
2022/11/07 10:54:48;;;;;;;21.80;12.78;;;;;;;6.82;90.32;101035.90;1718884;83;21325;-61
2022/11/07 10:57:21;;;;;;;22.35;12.65;;;;;;;6.83;90.19;101036.25;1717735;83;21209;-61
2022/11/07 10:59:57;;;;;;;23.50;13.85;;;;;;;6.83;90.00;101034.03;1676681;85;21242;-60
2022/11/07 11:02:44;;;;;;;25.92;14.07;;;;;;;6.81;89.54;101026.52;1680253;85;21636;-60
2022/11/07 11:05:28;;;;;;;24.40;13.70;;;;;;;6.77;89.58;101027.34;1757184;80;21139;-61
2022/11/07 11:08:16;;;;;;;24.20;12.53;;;;;;;6.75;89.45;101026.64;1771022;80;21630;-60
2022/11/07 11:10:48;;;;;;;23.50;13.90;;;;;;;6.77;89.46;101027.85;1722545;83;21182;-60
2022/11/07 11:13:32;;;;;;;21.50;12.63;;;;;;;6.79;89.36;101024.46;1730512;83;21556;-61
2022/11/07 11:16:21;;;;;;;24.35;13.53;;;;;;;6.82;89.04;101024.15;1730270;83;21380;-61
2022/11/07 11:19:04;;;;;;;26.33;12.78;;;;;;;6.82;88.84;101019.55;1585567;90;21170;-61
2022/11/07 11:21:45;;;;;;;23.47;12.28;;;;;;;6.83;88.51;101019.05;1585893;90;21138;-61
2022/11/07 11:24:33;;;;;;;25.20;14.03;;;;;;;6.85;88.54;101011.58;1584677;90;21214;-62
2022/11/07 11:27:47;;;;;;;22.95;13.08;;;;;;;6.87;88.34;101019.94;1583893;90;21166;-61
2022/11/07 11:30:25;;;;;;;26.35;13.25;;;;;;;6.88;88.31;101012.11;1579299;90;21197;-62
2022/11/07 11:33:19;;;;;;;25.55;13.62;;;;;;;6.92;88.30;101012.14;1589582;90;21934;-61
2022/11/07 11:36:40;;;;;;;27.95;14.00;;;;;;;6.94;88.19;101007.89;1611066;87;21204;-61
2022/11/07 11:39:16;;;;;;;18.42;9.88;;;;;;;6.96;88.16;101011.31;1626061;87;21166;-60
2022/11/07 11:41:57;;;;;;;22.93;12.28;;;;;;;6.99;87.83;101001.45;1625741;87;21141;-61
2022/11/07 11:44:37;;;;;;;25.12;13.30;;;;;;;6.98;87.19;101001.11;1686369;83;21186;-60
2022/11/07 11:47:26;;;;;;;28.62;14.55;;;;;;;6.97;86.70;100999.41;1668870;84;21135;-60
2022/11/07 11:50:22;;;;;;;26.45;12.30;;;;;;;6.96;86.31;100999.05;1686285;84;21095;-61